sensor_id;sensor_type;location;lat;lon;timestamp;P1;durP1;ratioP1;P2;durP2;ratioP2
14736;SDS011;7459;53.590;10.062;2022-09-29T00:00:36;13.02;;;6.95;;
14736;SDS011;7459;53.590;10.062;2022-09-29T00:03:03;14.65;;;7.35;;
14736;SDS011;7459;53.590;10.062;2022-09-29T00:05:29;17.97;;;7.13;;
14736;SDS011;7459;53.590;10.062;2022-09-29T00:07:55;14.50;;;7.43;;
14736;SDS011;7459;53.590;10.062;2022-09-29T00:10:21;12.70;;;6.70;;
14736;SDS011;7459;53.590;10.062;2022-09-29T00:12:48;13.68;;;6.93;;
14736;SDS011;7459;53.590;10.062;2022-09-29T00:15:13;13.02;;;7.07;;
14736;SDS011;7459;53.590;10.062;2022-09-29T00:17:39;14.03;;;7.03;;
14736;SDS011;7459;53.590;10.062;2022-09-29T00:20:05;13.80;;;7.00;;
14736;SDS011;7459;53.590;10.062;2022-09-29T00:22:32;12.97;;;6.40;;
14736;SDS011;7459;53.590;10.062;2022-09-29T00:24:58;12.27;;;6.22;;
14736;SDS011;7459;53.590;10.062;2022-09-29T00:27:24;15.27;;;7.53;;
14736;SDS011;7459;53.590;10.062;2022-09-29T00:29:50;13.63;;;6.80;;
14736;SDS011;7459;53.590;10.062;2022-09-29T00:32:15;14.65;;;7.40;;
14736;SDS011;7459;53.590;10.062;2022-09-29T00:34:41;17.05;;;8.57;;
14736;SDS011;7459;53.590;10.062;2022-09-29T00:37:07;14.17;;;6.90;;
14736;SDS011;7459;53.590;10.062;2022-09-29T00:39:33;16.27;;;7.80;;
14736;SDS011;7459;53.590;10.062;2022-09-29T00:41:58;16.87;;;8.30;;
14736;SDS011;7459;53.590;10.062;2022-09-29T00:47:37;13.87;;;6.50;;
14736;SDS011;7459;53.590;10.062;2022-09-29T00:50:12;14.25;;;7.38;;
14736;SDS011;7459;53.590;10.062;2022-09-29T00:52:48;14.82;;;7.90;;
14736;SDS011;7459;53.590;10.062;2022-09-29T00:55:22;15.60;;;7.45;;
14736;SDS011;7459;53.590;10.062;2022-09-29T00:58:02;15.77;;;8.38;;
14736;SDS011;7459;53.590;10.062;2022-09-29T01:00:34;16.23;;;7.53;;
14736;SDS011;7459;53.590;10.062;2022-09-29T01:03:03;15.50;;;7.45;;
14736;SDS011;7459;53.590;10.062;2022-09-29T01:05:36;14.73;;;7.65;;
14736;SDS011;7459;53.590;10.062;2022-09-29T01:08:10;13.88;;;6.15;;
14736;SDS011;7459;53.590;10.062;2022-09-29T01:10:57;13.88;;;7.50;;
14736;SDS011;7459;53.590;10.062;2022-09-29T01:13:26;14.17;;;6.63;;
14736;SDS011;7459;53.590;10.062;2022-09-29T01:15:53;13.07;;;7.38;;
14736;SDS011;7459;53.590;10.062;2022-09-29T01:18:19;13.38;;;7.20;;
14736;SDS011;7459;53.590;10.062;2022-09-29T01:20:50;14.25;;;8.85;;
14736;SDS011;7459;53.590;10.062;2022-09-29T01:38:15;14.73;;;7.35;;
14736;SDS011;7459;53.590;10.062;2022-09-29T01:44:25;15.45;;;6.80;;
14736;SDS011;7459;53.590;10.062;2022-09-29T01:47:01;13.30;;;7.13;;
14736;SDS011;7459;53.590;10.062;2022-09-29T01:49:42;15.60;;;7.40;;
14736;SDS011;7459;53.590;10.062;2022-09-29T01:52:22;15.00;;;7.13;;
14736;SDS011;7459;53.590;10.062;2022-09-29T01:54:54;16.33;;;7.50;;
14736;SDS011;7459;53.590;10.062;2022-09-29T01:57:49;13.63;;;6.90;;
14736;SDS011;7459;53.590;10.062;2022-09-29T02:00:22;15.52;;;7.50;;
14736;SDS011;7459;53.590;10.062;2022-09-29T02:03:14;14.30;;;7.55;;
14736;SDS011;7459;53.590;10.062;2022-09-29T02:05:58;13.73;;;6.70;;
14736;SDS011;7459;53.590;10.062;2022-09-29T02:08:31;17.77;;;7.30;;
14736;SDS011;7459;53.590;10.062;2022-09-29T02:11:06;12.63;;;6.53;;
14736;SDS011;7459;53.590;10.062;2022-09-29T02:13:44;14.25;;;6.97;;
14736;SDS011;7459;53.590;10.062;2022-09-29T02:16:37;14.57;;;7.35;;
14736;SDS011;7459;53.590;10.062;2022-09-29T02:19:16;15.27;;;7.38;;
14736;SDS011;7459;53.590;10.062;2022-09-29T02:21:47;14.13;;;7.13;;
14736;SDS011;7459;53.590;10.062;2022-09-29T02:24:13;16.58;;;7.32;;
14736;SDS011;7459;53.590;10.062;2022-09-29T02:26:39;14.82;;;6.97;;
14736;SDS011;7459;53.590;10.062;2022-09-29T02:29:06;16.05;;;7.43;;
14736;SDS011;7459;53.590;10.062;2022-09-29T02:31:33;16.15;;;6.88;;
14736;SDS011;7459;53.590;10.062;2022-09-29T02:34:01;15.02;;;7.10;;
14736;SDS011;7459;53.590;10.062;2022-09-29T02:36:31;16.92;;;8.15;;
14736;SDS011;7459;53.590;10.062;2022-09-29T02:39:31;14.35;;;6.80;;
14736;SDS011;7459;53.590;10.062;2022-09-29T02:45:36;17.15;;;7.35;;
14736;SDS011;7459;53.590;10.062;2022-09-29T03:00:39;12.32;;;6.38;;
14736;SDS011;7459;53.590;10.062;2022-09-29T03:03:05;14.20;;;6.93;;
14736;SDS011;7459;53.590;10.062;2022-09-29T03:05:31;15.85;;;6.55;;
14736;SDS011;7459;53.590;10.062;2022-09-29T03:07:57;12.65;;;6.82;;
14736;SDS011;7459;53.590;10.062;2022-09-29T03:10:23;14.20;;;7.35;;
14736;SDS011;7459;53.590;10.062;2022-09-29T03:12:48;17.13;;;7.87;;
14736;SDS011;7459;53.590;10.062;2022-09-29T03:15:14;13.98;;;7.07;;
14736;SDS011;7459;53.590;10.062;2022-09-29T03:17:41;13.40;;;7.15;;
14736;SDS011;7459;53.590;10.062;2022-09-29T03:20:07;12.50;;;6.47;;
14736;SDS011;7459;53.590;10.062;2022-09-29T03:22:33;13.30;;;7.38;;
14736;SDS011;7459;53.590;10.062;2022-09-29T03:24:59;14.00;;;7.60;;
14736;SDS011;7459;53.590;10.062;2022-09-29T03:27:25;13.63;;;6.50;;
14736;SDS011;7459;53.590;10.062;2022-09-29T03:29:50;13.25;;;6.63;;
14736;SDS011;7459;53.590;10.062;2022-09-29T03:32:16;13.77;;;6.00;;
14736;SDS011;7459;53.590;10.062;2022-09-29T03:34:42;10.93;;;5.75;;
14736;SDS011;7459;53.590;10.062;2022-09-29T03:37:08;11.47;;;6.57;;
14736;SDS011;7459;53.590;10.062;2022-09-29T03:39:33;11.70;;;5.60;;
14736;SDS011;7459;53.590;10.062;2022-09-29T03:42:00;12.77;;;6.27;;
14736;SDS011;7459;53.590;10.062;2022-09-29T03:44:26;11.90;;;6.18;;
14736;SDS011;7459;53.590;10.062;2022-09-29T03:46:52;11.53;;;6.33;;
14736;SDS011;7459;53.590;10.062;2022-09-29T03:49:17;14.73;;;6.38;;
14736;SDS011;7459;53.590;10.062;2022-09-29T03:51:43;13.70;;;6.87;;
14736;SDS011;7459;53.590;10.062;2022-09-29T03:54:09;15.85;;;7.93;;
14736;SDS011;7459;53.590;10.062;2022-09-29T03:56:35;14.35;;;7.13;;
14736;SDS011;7459;53.590;10.062;2022-09-29T03:59:02;13.43;;;6.60;;
14736;SDS011;7459;53.590;10.062;2022-09-29T04:01:29;13.40;;;6.37;;
14736;SDS011;7459;53.590;10.062;2022-09-29T04:03:56;14.45;;;7.20;;
14736;SDS011;7459;53.590;10.062;2022-09-29T04:06:22;11.88;;;6.90;;
14736;SDS011;7459;53.590;10.062;2022-09-29T04:08:48;14.75;;;6.78;;
14736;SDS011;7459;53.590;10.062;2022-09-29T04:11:14;14.97;;;5.97;;
14736;SDS011;7459;53.590;10.062;2022-09-29T04:13:40;13.95;;;6.35;;
14736;SDS011;7459;53.590;10.062;2022-09-29T04:16:06;14.45;;;6.70;;
14736;SDS011;7459;53.590;10.062;2022-09-29T04:18:32;14.48;;;6.18;;
14736;SDS011;7459;53.590;10.062;2022-09-29T04:20:58;16.50;;;6.10;;
14736;SDS011;7459;53.590;10.062;2022-09-29T04:23:29;12.13;;;6.43;;
14736;SDS011;7459;53.590;10.062;2022-09-29T04:25:55;13.77;;;7.25;;
14736;SDS011;7459;53.590;10.062;2022-09-29T04:28:21;12.25;;;6.55;;
14736;SDS011;7459;53.590;10.062;2022-09-29T04:30:48;11.93;;;6.47;;
14736;SDS011;7459;53.590;10.062;2022-09-29T04:33:14;16.17;;;6.32;;
14736;SDS011;7459;53.590;10.062;2022-09-29T04:35:40;12.97;;;7.40;;
14736;SDS011;7459;53.590;10.062;2022-09-29T04:38:06;13.02;;;7.35;;
14736;SDS011;7459;53.590;10.062;2022-09-29T04:40:33;13.55;;;6.70;;
14736;SDS011;7459;53.590;10.062;2022-09-29T04:43:00;13.82;;;6.88;;
14736;SDS011;7459;53.590;10.062;2022-09-29T04:45:26;11.93;;;6.43;;
14736;SDS011;7459;53.590;10.062;2022-09-29T04:47:52;13.83;;;6.80;;
14736;SDS011;7459;53.590;10.062;2022-09-29T04:50:17;13.07;;;6.63;;
14736;SDS011;7459;53.590;10.062;2022-09-29T04:52:43;14.30;;;6.83;;
14736;SDS011;7459;53.590;10.062;2022-09-29T04:55:09;13.05;;;6.53;;
14736;SDS011;7459;53.590;10.062;2022-09-29T04:57:37;14.15;;;6.75;;
14736;SDS011;7459;53.590;10.062;2022-09-29T05:00:04;12.63;;;6.57;;
14736;SDS011;7459;53.590;10.062;2022-09-29T05:02:31;14.57;;;6.67;;
14736;SDS011;7459;53.590;10.062;2022-09-29T05:04:58;15.60;;;5.82;;
14736;SDS011;7459;53.590;10.062;2022-09-29T05:07:24;15.50;;;6.22;;
14736;SDS011;7459;53.590;10.062;2022-09-29T05:09:50;14.20;;;7.10;;
14736;SDS011;7459;53.590;10.062;2022-09-29T05:12:16;12.77;;;6.47;;
14736;SDS011;7459;53.590;10.062;2022-09-29T05:14:41;15.00;;;6.97;;
14736;SDS011;7459;53.590;10.062;2022-09-29T05:17:07;16.52;;;6.97;;
14736;SDS011;7459;53.590;10.062;2022-09-29T05:19:33;13.32;;;7.15;;
14736;SDS011;7459;53.590;10.062;2022-09-29T05:21:59;14.23;;;7.20;;
14736;SDS011;7459;53.590;10.062;2022-09-29T05:24:26;14.70;;;6.57;;
14736;SDS011;7459;53.590;10.062;2022-09-29T05:26:52;17.38;;;6.70;;
14736;SDS011;7459;53.590;10.062;2022-09-29T05:29:17;17.63;;;7.65;;
14736;SDS011;7459;53.590;10.062;2022-09-29T05:31:43;13.57;;;6.60;;
14736;SDS011;7459;53.590;10.062;2022-09-29T05:34:09;15.57;;;7.55;;
14736;SDS011;7459;53.590;10.062;2022-09-29T05:36:35;16.97;;;6.90;;
14736;SDS011;7459;53.590;10.062;2022-09-29T05:39:01;14.05;;;6.95;;
14736;SDS011;7459;53.590;10.062;2022-09-29T05:41:27;14.52;;;7.18;;
14736;SDS011;7459;53.590;10.062;2022-09-29T05:43:53;15.93;;;7.27;;
14736;SDS011;7459;53.590;10.062;2022-09-29T05:46:21;14.23;;;7.57;;
14736;SDS011;7459;53.590;10.062;2022-09-29T05:48:48;18.23;;;7.70;;
14736;SDS011;7459;53.590;10.062;2022-09-29T05:51:19;15.10;;;6.80;;
14736;SDS011;7459;53.590;10.062;2022-09-29T05:53:47;16.77;;;7.15;;
14736;SDS011;7459;53.590;10.062;2022-09-29T05:56:14;16.00;;;7.60;;
14736;SDS011;7459;53.590;10.062;2022-09-29T05:58:43;15.43;;;7.90;;
14736;SDS011;7459;53.590;10.062;2022-09-29T06:01:13;16.13;;;8.37;;
14736;SDS011;7459;53.590;10.062;2022-09-29T06:03:42;14.25;;;7.93;;
14736;SDS011;7459;53.590;10.062;2022-09-29T06:06:09;15.57;;;7.53;;
14736;SDS011;7459;53.590;10.062;2022-09-29T06:08:38;14.02;;;7.35;;
14736;SDS011;7459;53.590;10.062;2022-09-29T06:11:05;15.25;;;7.45;;
14736;SDS011;7459;53.590;10.062;2022-09-29T06:13:37;17.03;;;7.80;;
14736;SDS011;7459;53.590;10.062;2022-09-29T06:16:08;15.77;;;7.63;;
14736;SDS011;7459;53.590;10.062;2022-09-29T06:18:35;17.58;;;7.20;;
14736;SDS011;7459;53.590;10.062;2022-09-29T06:21:10;18.80;;;7.22;;
14736;SDS011;7459;53.590;10.062;2022-09-29T06:23:38;19.13;;;8.18;;
14736;SDS011;7459;53.590;10.062;2022-09-29T06:26:05;17.77;;;8.17;;
14736;SDS011;7459;53.590;10.062;2022-09-29T06:28:35;18.27;;;8.18;;
14736;SDS011;7459;53.590;10.062;2022-09-29T06:31:02;17.38;;;9.63;;
14736;SDS011;7459;53.590;10.062;2022-09-29T06:33:34;16.58;;;7.93;;
14736;SDS011;7459;53.590;10.062;2022-09-29T06:36:01;16.38;;;8.45;;
14736;SDS011;7459;53.590;10.062;2022-09-29T06:38:51;17.60;;;8.70;;
14736;SDS011;7459;53.590;10.062;2022-09-29T06:41:17;18.42;;;8.82;;
14736;SDS011;7459;53.590;10.062;2022-09-29T06:43:44;17.65;;;8.82;;
14736;SDS011;7459;53.590;10.062;2022-09-29T06:46:10;20.37;;;10.33;;
14736;SDS011;7459;53.590;10.062;2022-09-29T06:48:35;18.60;;;9.70;;
14736;SDS011;7459;53.590;10.062;2022-09-29T06:51:01;17.63;;;9.50;;
14736;SDS011;7459;53.590;10.062;2022-09-29T06:53:31;19.85;;;10.02;;
14736;SDS011;7459;53.590;10.062;2022-09-29T06:55:57;18.07;;;8.97;;
14736;SDS011;7459;53.590;10.062;2022-09-29T06:58:24;23.10;;;10.40;;
14736;SDS011;7459;53.590;10.062;2022-09-29T07:00:50;19.83;;;9.75;;
14736;SDS011;7459;53.590;10.062;2022-09-29T07:03:16;19.35;;;10.18;;
14736;SDS011;7459;53.590;10.062;2022-09-29T07:05:42;17.17;;;9.27;;
14736;SDS011;7459;53.590;10.062;2022-09-29T07:08:08;16.67;;;9.40;;
14736;SDS011;7459;53.590;10.062;2022-09-29T07:10:33;17.08;;;9.85;;
14736;SDS011;7459;53.590;10.062;2022-09-29T07:12:59;21.07;;;10.60;;
14736;SDS011;7459;53.590;10.062;2022-09-29T07:15:25;18.60;;;9.63;;
14736;SDS011;7459;53.590;10.062;2022-09-29T07:17:57;19.03;;;10.30;;
14736;SDS011;7459;53.590;10.062;2022-09-29T07:20:24;18.50;;;9.10;;
14736;SDS011;7459;53.590;10.062;2022-09-29T07:22:52;22.48;;;9.82;;
14736;SDS011;7459;53.590;10.062;2022-09-29T07:25:17;19.60;;;8.90;;
14736;SDS011;7459;53.590;10.062;2022-09-29T07:27:43;16.10;;;9.50;;
14736;SDS011;7459;53.590;10.062;2022-09-29T07:30:10;17.90;;;9.07;;
14736;SDS011;7459;53.590;10.062;2022-09-29T07:32:36;21.77;;;9.45;;
14736;SDS011;7459;53.590;10.062;2022-09-29T07:35:02;23.87;;;9.57;;
14736;SDS011;7459;53.590;10.062;2022-09-29T07:37:30;16.33;;;9.30;;
14736;SDS011;7459;53.590;10.062;2022-09-29T07:39:55;16.97;;;9.37;;
14736;SDS011;7459;53.590;10.062;2022-09-29T07:42:21;17.35;;;10.15;;
14736;SDS011;7459;53.590;10.062;2022-09-29T07:44:47;18.63;;;9.73;;
14736;SDS011;7459;53.590;10.062;2022-09-29T07:47:13;20.77;;;9.77;;
14736;SDS011;7459;53.590;10.062;2022-09-29T07:49:39;17.15;;;9.30;;
14736;SDS011;7459;53.590;10.062;2022-09-29T07:52:05;20.95;;;10.00;;
14736;SDS011;7459;53.590;10.062;2022-09-29T07:54:32;17.17;;;8.63;;
14736;SDS011;7459;53.590;10.062;2022-09-29T07:56:58;18.50;;;9.00;;
14736;SDS011;7459;53.590;10.062;2022-09-29T07:59:25;18.45;;;9.68;;
14736;SDS011;7459;53.590;10.062;2022-09-29T08:01:51;17.83;;;8.68;;
14736;SDS011;7459;53.590;10.062;2022-09-29T08:04:17;18.98;;;9.13;;
14736;SDS011;7459;53.590;10.062;2022-09-29T08:06:43;18.13;;;9.73;;
14736;SDS011;7459;53.590;10.062;2022-09-29T08:09:10;21.35;;;9.13;;
14736;SDS011;7459;53.590;10.062;2022-09-29T08:11:37;18.90;;;9.05;;
14736;SDS011;7459;53.590;10.062;2022-09-29T08:14:05;17.92;;;10.27;;
14736;SDS011;7459;53.590;10.062;2022-09-29T08:16:32;17.13;;;9.52;;
14736;SDS011;7459;53.590;10.062;2022-09-29T08:18:59;18.10;;;9.40;;
14736;SDS011;7459;53.590;10.062;2022-09-29T08:21:25;18.50;;;10.00;;
14736;SDS011;7459;53.590;10.062;2022-09-29T08:23:51;17.63;;;10.13;;
14736;SDS011;7459;53.590;10.062;2022-09-29T08:26:18;18.57;;;10.40;;
14736;SDS011;7459;53.590;10.062;2022-09-29T08:28:46;19.90;;;9.27;;
14736;SDS011;7459;53.590;10.062;2022-09-29T08:33:45;19.40;;;9.45;;
14736;SDS011;7459;53.590;10.062;2022-09-29T08:36:14;18.38;;;11.05;;
14736;SDS011;7459;53.590;10.062;2022-09-29T08:38:43;16.67;;;9.00;;
14736;SDS011;7459;53.590;10.062;2022-09-29T08:44:25;17.52;;;8.77;;
14736;SDS011;7459;53.590;10.062;2022-09-29T08:47:01;18.30;;;8.00;;
14736;SDS011;7459;53.590;10.062;2022-09-29T08:49:47;17.58;;;8.93;;
14736;SDS011;7459;53.590;10.062;2022-09-29T08:52:23;17.93;;;9.07;;
14736;SDS011;7459;53.590;10.062;2022-09-29T08:57:57;15.60;;;8.45;;
14736;SDS011;7459;53.590;10.062;2022-09-29T09:00:37;19.13;;;9.00;;
14736;SDS011;7459;53.590;10.062;2022-09-29T09:03:29;17.50;;;9.30;;
14736;SDS011;7459;53.590;10.062;2022-09-29T09:12:20;18.77;;;9.27;;
14736;SDS011;7459;53.590;10.062;2022-09-29T09:24:20;16.52;;;7.47;;
14736;SDS011;7459;53.590;10.062;2022-09-29T09:26:37;15.05;;;7.97;;
14736;SDS011;7459;53.590;10.062;2022-09-29T09:37:49;15.05;;;6.80;;
14736;SDS011;7459;53.590;10.062;2022-09-29T09:40:22;14.52;;;7.90;;
14736;SDS011;7459;53.590;10.062;2022-09-29T09:42:59;15.52;;;7.07;;
14736;SDS011;7459;53.590;10.062;2022-09-29T09:45:33;18.90;;;7.60;;
14736;SDS011;7459;53.590;10.062;2022-09-29T09:48:11;15.50;;;7.73;;
14736;SDS011;7459;53.590;10.062;2022-09-29T09:50:43;13.55;;;7.68;;
14736;SDS011;7459;53.590;10.062;2022-09-29T09:53:11;14.82;;;7.93;;
14736;SDS011;7459;53.590;10.062;2022-09-29T09:55:47;16.02;;;8.68;;
14736;SDS011;7459;53.590;10.062;2022-09-29T10:02:00;15.17;;;8.17;;
14736;SDS011;7459;53.590;10.062;2022-09-29T10:04:26;19.45;;;8.95;;
14736;SDS011;7459;53.590;10.062;2022-09-29T10:06:52;16.20;;;9.00;;
14736;SDS011;7459;53.590;10.062;2022-09-29T10:09:19;16.27;;;9.38;;
14736;SDS011;7459;53.590;10.062;2022-09-29T10:11:44;16.73;;;10.60;;
14736;SDS011;7459;53.590;10.062;2022-09-29T10:14:12;16.85;;;9.25;;
14736;SDS011;7459;53.590;10.062;2022-09-29T10:22:30;13.20;;;7.65;;
14736;SDS011;7459;53.590;10.062;2022-09-29T10:25:05;14.93;;;7.57;;
14736;SDS011;7459;53.590;10.062;2022-09-29T10:27:41;17.00;;;8.63;;
14736;SDS011;7459;53.590;10.062;2022-09-29T10:30:19;14.77;;;7.67;;
14736;SDS011;7459;53.590;10.062;2022-09-29T10:32:50;13.27;;;7.72;;
14736;SDS011;7459;53.590;10.062;2022-09-29T10:35:28;16.60;;;7.15;;
14736;SDS011;7459;53.590;10.062;2022-09-29T10:38:01;13.93;;;6.93;;
14736;SDS011;7459;53.590;10.062;2022-09-29T10:43:35;12.37;;;7.20;;
14736;SDS011;7459;53.590;10.062;2022-09-29T10:52:02;15.85;;;7.32;;
14736;SDS011;7459;53.590;10.062;2022-09-29T10:54:31;18.90;;;7.80;;
14736;SDS011;7459;53.590;10.062;2022-09-29T10:57:13;13.33;;;6.23;;
14736;SDS011;7459;53.590;10.062;2022-09-29T10:59:46;14.57;;;6.80;;
14736;SDS011;7459;53.590;10.062;2022-09-29T11:02:35;12.20;;;6.22;;
14736;SDS011;7459;53.590;10.062;2022-09-29T11:05:04;12.60;;;6.63;;
14736;SDS011;7459;53.590;10.062;2022-09-29T11:07:43;12.07;;;6.15;;
14736;SDS011;7459;53.590;10.062;2022-09-29T11:10:25;12.67;;;6.00;;
14736;SDS011;7459;53.590;10.062;2022-09-29T11:12:54;11.63;;;6.30;;
14736;SDS011;7459;53.590;10.062;2022-09-29T11:15:24;10.43;;;6.65;;
14736;SDS011;7459;53.590;10.062;2022-09-29T11:17:53;13.80;;;6.55;;
14736;SDS011;7459;53.590;10.062;2022-09-29T11:20:20;12.38;;;6.35;;
14736;SDS011;7459;53.590;10.062;2022-09-29T11:36:44;12.63;;;5.90;;
14736;SDS011;7459;53.590;10.062;2022-09-29T11:39:21;13.23;;;5.95;;
14736;SDS011;7459;53.590;10.062;2022-09-29T11:42:22;13.48;;;5.85;;
14736;SDS011;7459;53.590;10.062;2022-09-29T11:45:15;13.45;;;6.35;;
14736;SDS011;7459;53.590;10.062;2022-09-29T11:48:36;13.10;;;6.18;;
14736;SDS011;7459;53.590;10.062;2022-09-29T11:51:04;14.00;;;6.10;;
14736;SDS011;7459;53.590;10.062;2022-09-29T11:53:55;13.48;;;5.75;;
14736;SDS011;7459;53.590;10.062;2022-09-29T11:56:45;13.20;;;6.15;;
14736;SDS011;7459;53.590;10.062;2022-09-29T11:59:32;15.15;;;6.32;;
14736;SDS011;7459;53.590;10.062;2022-09-29T12:17:24;11.82;;;6.93;;
14736;SDS011;7459;53.590;10.062;2022-09-29T12:19:59;10.43;;;5.77;;
14736;SDS011;7459;53.590;10.062;2022-09-29T12:22:47;12.35;;;6.10;;
14736;SDS011;7459;53.590;10.062;2022-09-29T12:25:16;11.77;;;6.68;;
14736;SDS011;7459;53.590;10.062;2022-09-29T12:27:48;10.20;;;5.82;;
14736;SDS011;7459;53.590;10.062;2022-09-29T12:30:25;11.95;;;6.20;;
14736;SDS011;7459;53.590;10.062;2022-09-29T12:33:08;10.10;;;5.87;;
14736;SDS011;7459;53.590;10.062;2022-09-29T12:36:07;10.80;;;5.78;;
14736;SDS011;7459;53.590;10.062;2022-09-29T12:45:13;11.15;;;5.47;;
14736;SDS011;7459;53.590;10.062;2022-09-29T12:56:19;7.93;;;4.10;;
14736;SDS011;7459;53.590;10.062;2022-09-29T12:58:56;8.50;;;4.00;;
14736;SDS011;7459;53.590;10.062;2022-09-29T13:01:29;7.27;;;4.33;;
14736;SDS011;7459;53.590;10.062;2022-09-29T13:18:21;9.38;;;5.82;;
14736;SDS011;7459;53.590;10.062;2022-09-29T13:25:01;10.60;;;5.97;;
14736;SDS011;7459;53.590;10.062;2022-09-29T13:28:00;9.77;;;5.80;;
14736;SDS011;7459;53.590;10.062;2022-09-29T13:30:26;10.17;;;6.80;;
14736;SDS011;7459;53.590;10.062;2022-09-29T13:33:15;10.85;;;6.85;;
14736;SDS011;7459;53.590;10.062;2022-09-29T13:35:48;11.43;;;6.50;;
14736;SDS011;7459;53.590;10.062;2022-09-29T13:38:16;12.27;;;6.63;;
14736;SDS011;7459;53.590;10.062;2022-09-29T13:51:49;11.50;;;7.10;;
14736;SDS011;7459;53.590;10.062;2022-09-29T14:02:37;11.10;;;6.88;;
14736;SDS011;7459;53.590;10.062;2022-09-29T14:10:37;11.47;;;6.87;;
14736;SDS011;7459;53.590;10.062;2022-09-29T14:19:02;13.20;;;6.93;;
14736;SDS011;7459;53.590;10.062;2022-09-29T14:21:47;11.20;;;6.80;;
14736;SDS011;7459;53.590;10.062;2022-09-29T14:33:10;12.40;;;7.50;;
14736;SDS011;7459;53.590;10.062;2022-09-29T14:35:41;11.77;;;7.25;;
14736;SDS011;7459;53.590;10.062;2022-09-29T14:55:30;15.55;;;8.55;;
14736;SDS011;7459;53.590;10.062;2022-09-29T15:01:39;13.77;;;8.10;;
14736;SDS011;7459;53.590;10.062;2022-09-29T15:04:25;13.93;;;8.65;;
14736;SDS011;7459;53.590;10.062;2022-09-29T15:06:52;15.97;;;8.13;;
14736;SDS011;7459;53.590;10.062;2022-09-29T15:09:22;13.75;;;8.30;;
14736;SDS011;7459;53.590;10.062;2022-09-29T15:17:01;14.23;;;8.50;;
14736;SDS011;7459;53.590;10.062;2022-09-29T15:25:59;13.20;;;8.55;;
14736;SDS011;7459;53.590;10.062;2022-09-29T15:31:01;14.32;;;7.80;;
14736;SDS011;7459;53.590;10.062;2022-09-29T15:33:35;12.18;;;7.15;;
14736;SDS011;7459;53.590;10.062;2022-09-29T15:36:07;14.48;;;8.02;;
14736;SDS011;7459;53.590;10.062;2022-09-29T15:38:44;13.52;;;8.77;;
14736;SDS011;7459;53.590;10.062;2022-09-29T15:43:39;12.73;;;7.83;;
14736;SDS011;7459;53.590;10.062;2022-09-29T15:54:40;15.40;;;8.25;;
14736;SDS011;7459;53.590;10.062;2022-09-29T16:02:59;15.13;;;8.30;;
14736;SDS011;7459;53.590;10.062;2022-09-29T16:05:39;17.38;;;7.90;;
14736;SDS011;7459;53.590;10.062;2022-09-29T16:08:16;14.15;;;8.35;;
14736;SDS011;7459;53.590;10.062;2022-09-29T16:10:52;13.47;;;8.17;;
14736;SDS011;7459;53.590;10.062;2022-09-29T16:13:22;13.75;;;8.57;;
14736;SDS011;7459;53.590;10.062;2022-09-29T16:15:53;15.02;;;8.15;;
14736;SDS011;7459;53.590;10.062;2022-09-29T16:18:23;14.95;;;7.03;;
14736;SDS011;7459;53.590;10.062;2022-09-29T16:20:54;12.40;;;7.78;;
14736;SDS011;7459;53.590;10.062;2022-09-29T16:28:38;11.68;;;6.63;;
14736;SDS011;7459;53.590;10.062;2022-09-29T16:31:51;13.55;;;7.57;;
14736;SDS011;7459;53.590;10.062;2022-09-29T16:36:46;13.23;;;7.90;;
14736;SDS011;7459;53.590;10.062;2022-09-29T16:39:14;11.63;;;6.97;;
14736;SDS011;7459;53.590;10.062;2022-09-29T16:41:42;15.25;;;7.78;;
14736;SDS011;7459;53.590;10.062;2022-09-29T16:44:14;13.02;;;6.90;;
14736;SDS011;7459;53.590;10.062;2022-09-29T16:52:16;14.18;;;7.65;;
14736;SDS011;7459;53.590;10.062;2022-09-29T16:54:51;12.50;;;7.40;;
14736;SDS011;7459;53.590;10.062;2022-09-29T17:00:05;13.35;;;8.23;;
14736;SDS011;7459;53.590;10.062;2022-09-29T17:02:36;13.60;;;8.23;;
14736;SDS011;7459;53.590;10.062;2022-09-29T17:05:02;14.88;;;8.02;;
14736;SDS011;7459;53.590;10.062;2022-09-29T17:07:29;14.75;;;7.78;;
14736;SDS011;7459;53.590;10.062;2022-09-29T17:09:56;12.23;;;7.50;;
14736;SDS011;7459;53.590;10.062;2022-09-29T17:12:24;11.63;;;7.10;;
14736;SDS011;7459;53.590;10.062;2022-09-29T17:14:52;15.20;;;8.30;;
14736;SDS011;7459;53.590;10.062;2022-09-29T17:17:22;14.50;;;7.73;;
14736;SDS011;7459;53.590;10.062;2022-09-29T17:19:50;13.00;;;7.67;;
14736;SDS011;7459;53.590;10.062;2022-09-29T17:25:01;14.18;;;8.10;;
14736;SDS011;7459;53.590;10.062;2022-09-29T17:27:27;12.80;;;8.05;;
14736;SDS011;7459;53.590;10.062;2022-09-29T17:30:16;15.82;;;7.85;;
14736;SDS011;7459;53.590;10.062;2022-09-29T17:32:46;13.93;;;8.33;;
14736;SDS011;7459;53.590;10.062;2022-09-29T17:35:13;17.45;;;8.65;;
14736;SDS011;7459;53.590;10.062;2022-09-29T17:37:41;16.30;;;8.18;;
14736;SDS011;7459;53.590;10.062;2022-09-29T17:42:54;14.95;;;8.38;;
14736;SDS011;7459;53.590;10.062;2022-09-29T17:45:24;15.30;;;8.53;;
14736;SDS011;7459;53.590;10.062;2022-09-29T17:47:51;13.85;;;8.88;;
14736;SDS011;7459;53.590;10.062;2022-09-29T17:52:49;14.27;;;8.60;;
14736;SDS011;7459;53.590;10.062;2022-09-29T17:55:16;16.63;;;8.32;;
14736;SDS011;7459;53.590;10.062;2022-09-29T17:57:42;14.93;;;8.33;;
14736;SDS011;7459;53.590;10.062;2022-09-29T18:00:12;16.08;;;8.88;;
14736;SDS011;7459;53.590;10.062;2022-09-29T18:03:03;17.02;;;8.75;;
14736;SDS011;7459;53.590;10.062;2022-09-29T18:05:36;14.32;;;9.15;;
14736;SDS011;7459;53.590;10.062;2022-09-29T18:08:05;15.13;;;9.30;;
14736;SDS011;7459;53.590;10.062;2022-09-29T18:13:18;15.48;;;8.50;;
14736;SDS011;7459;53.590;10.062;2022-09-29T18:15:45;15.20;;;8.75;;
14736;SDS011;7459;53.590;10.062;2022-09-29T18:18:12;14.68;;;8.35;;
14736;SDS011;7459;53.590;10.062;2022-09-29T18:20:40;13.80;;;8.37;;
14736;SDS011;7459;53.590;10.062;2022-09-29T18:23:06;14.25;;;8.40;;
14736;SDS011;7459;53.590;10.062;2022-09-29T18:25:32;14.00;;;8.27;;
14736;SDS011;7459;53.590;10.062;2022-09-29T18:27:59;16.20;;;8.52;;
14736;SDS011;7459;53.590;10.062;2022-09-29T18:30:30;13.65;;;8.43;;
14736;SDS011;7459;53.590;10.062;2022-09-29T18:33:04;15.23;;;8.67;;
14736;SDS011;7459;53.590;10.062;2022-09-29T18:35:36;16.42;;;8.90;;
14736;SDS011;7459;53.590;10.062;2022-09-29T18:38:02;15.15;;;8.43;;
14736;SDS011;7459;53.590;10.062;2022-09-29T18:40:28;13.93;;;8.07;;
14736;SDS011;7459;53.590;10.062;2022-09-29T18:42:55;13.90;;;8.27;;
14736;SDS011;7459;53.590;10.062;2022-09-29T18:45:24;14.90;;;8.48;;
14736;SDS011;7459;53.590;10.062;2022-09-29T18:48:03;15.27;;;8.07;;
14736;SDS011;7459;53.590;10.062;2022-09-29T18:50:35;14.23;;;7.90;;
14736;SDS011;7459;53.590;10.062;2022-09-29T18:53:08;12.73;;;7.60;;
14736;SDS011;7459;53.590;10.062;2022-09-29T18:55:35;14.20;;;7.43;;
14736;SDS011;7459;53.590;10.062;2022-09-29T18:58:01;14.13;;;8.35;;
14736;SDS011;7459;53.590;10.062;2022-09-29T19:00:28;14.05;;;8.18;;
14736;SDS011;7459;53.590;10.062;2022-09-29T19:02:57;12.27;;;7.30;;
14736;SDS011;7459;53.590;10.062;2022-09-29T19:05:24;15.88;;;8.57;;
14736;SDS011;7459;53.590;10.062;2022-09-29T19:07:59;14.40;;;7.95;;
14736;SDS011;7459;53.590;10.062;2022-09-29T19:10:28;15.00;;;8.45;;
14736;SDS011;7459;53.590;10.062;2022-09-29T19:12:57;13.27;;;7.65;;
14736;SDS011;7459;53.590;10.062;2022-09-29T19:15:26;13.33;;;7.60;;
14736;SDS011;7459;53.590;10.062;2022-09-29T19:17:53;12.00;;;7.00;;
14736;SDS011;7459;53.590;10.062;2022-09-29T19:20:24;12.70;;;7.50;;
14736;SDS011;7459;53.590;10.062;2022-09-29T19:22:52;12.00;;;7.75;;